Capt. Harry — WDC3690 — position and weather

sailwx.info

Track history (hours):
 
Tides and Currents Weather Stations Pressure Air Temp Water Temp Dewpoint Dewpoint Depression Visibility Wind Speed Wind Dir Waves Ship Positions

Capt. Harry

Owner: Wilmington Tug, Inc., New Castle, DE. More information available from US FCC via Universal Licensing System and Coast Guard Vessel Documentation Center.

Last reported at 2015-Jul-03 11:33 UTC. Time now 2015-Jul-03 12:26 UTC.
Position N 39°49' W 075°25'.

Type: Tug. MMSI: 367012530.

Date/timePositionNaut miles runAvg speedWind from/ knotsBaromVisibWave heightAir tempDewpointWater temp
2015-Jul-03 11:33N 39°49' W 075°25'0 0.0
2015-Jul-03 10:33N 39°49' W 075°25'0 0.0
2015-Jul-03 09:33N 39°49' W 075°25'0 0.0
2015-Jul-03 08:33N 39°49' W 075°25'1 1.0
2015-Jul-03 07:33N 39°48' W 075°26'0 0.2
2015-Jul-03 06:33N 39°48' W 075°26'0 0.2
2015-Jul-03 05:33N 39°48' W 075°26'7 7.0
2015-Jul-03 04:33N 39°51' W 075°18'5 5.5
2015-Jul-03 03:33N 39°53' W 075°11'0 0.0
2015-Jul-03 02:33N 39°53' W 075°11'0 0.0
2015-Jul-03 01:33N 39°53' W 075°11'4 4.4
2015-Jul-03 00:33N 39°51' W 075°16'0 0.0
2015-Jul-02 23:33N 39°51' W 075°16'2 1.7
2015-Jul-02 22:33N 39°51' W 075°18'5 4.9
2015-Jul-02 21:33N 39°49' W 075°24'8 7.8
2015-Jul-02 20:33N 39°43' W 075°30'9 8.7
2015-Jul-02 19:33N 39°35' W 075°35'0 0.0
2015-Jul-02 18:33N 39°35' W 075°35'2 2.3
2015-Jul-02 17:33N 39°34' W 075°33'2 2.3
2015-Jul-02 16:33N 39°35' W 075°35'0 0.0
2015-Jul-02 15:33N 39°35' W 075°35'0 0.0
2015-Jul-02 14:33N 39°35' W 075°35'0 0.0
2015-Jul-02 13:33N 39°35' W 075°35'0 0.0
2015-Jul-02 12:33N 39°35' W 075°35'0 0.0
2015-Jul-02 11:33N 39°35' W 075°35'0 0.0
2015-Jul-02 10:33N 39°35' W 075°35'0 0.0
2015-Jul-02 09:33N 39°35' W 075°35'0 0.0
2015-Jul-02 08:33N 39°35' W 075°35'0 0.0
2015-Jul-02 07:33N 39°35' W 075°35'0 0.0
2015-Jul-02 06:33N 39°35' W 075°35'0 0.0
2015-Jul-02 05:33N 39°35' W 075°35'0 0.0
2015-Jul-02 04:33N 39°35' W 075°35'0 0.0
2015-Jul-02 03:33N 39°35' W 075°35'0 0.0
2015-Jul-02 02:33N 39°35' W 075°35'0 0.0
2015-Jul-02 01:33N 39°35' W 075°35'0 0.0
2015-Jul-02 00:33N 39°35' W 075°35'0 0.1
2015-Jul-01 23:33N 39°35' W 075°35'0 0.1
2015-Jul-01 22:33N 39°35' W 075°35'0 0.0
2015-Jul-01 21:33N 39°35' W 075°35'0 0.0
2015-Jul-01 20:33N 39°35' W 075°35'0 0.0
2015-Jul-01 19:33N 39°35' W 075°35'0 0.0
2015-Jul-01 18:33N 39°35' W 075°35'0 0.0
2015-Jul-01 17:33N 39°35' W 075°35'0 0.0
2015-Jul-01 16:33N 39°35' W 075°35'0 0.2
2015-Jul-01 15:33N 39°35' W 075°35'0 0.3
2015-Jul-01 14:33N 39°35' W 075°36'0 0.0
2015-Jul-01 13:33N 39°35' W 075°36'0 0.0
2015-Jul-01 12:33N 39°35' W 075°36'0 0.0
2015-Jul-01 11:33N 39°35' W 075°35'0 0.0
2015-Jul-01 10:33N 39°35' W 075°35'0 0.0
2015-Jul-01 09:33N 39°35' W 075°35'0 0.0
2015-Jul-01 08:33N 39°35' W 075°35'0 0.0
2015-Jul-01 07:33N 39°35' W 075°35'0 0.1
2015-Jul-01 06:33N 39°35' W 075°36'2 2.0
2015-Jul-01 05:33N 39°34' W 075°33'8 7.9
2015-Jul-01 04:33N 39°42' W 075°31'1 0.9
2015-Jul-01 03:33N 39°43' W 075°31'0 0.0
2015-Jul-01 02:33N 39°43' W 075°31'0 0.0
2015-Jul-01 01:33N 39°43' W 075°31'0 0.0
2015-Jul-01 00:33N 39°43' W 075°31'0 0.0
2015-Jun-30 23:33N 39°43' W 075°31'0 0.0
2015-Jun-30 22:33N 39°43' W 075°31'0 0.0
2015-Jun-30 21:33N 39°43' W 075°31'0 0.0
2015-Jun-30 20:33N 39°43' W 075°31'0 0.0
2015-Jun-30 19:33N 39°43' W 075°31'1 0.5
2015-Jun-30 18:33N 39°43' W 075°31'1 0.5
2015-Jun-30 17:33N 39°43' W 075°31'10 3.2
2015-Jun-30 14:27N 39°50' W 075°22'4 4.9
2015-Jun-30 13:33N 39°51' W 075°16'0 0.0
2015-Jun-30 12:33N 39°51' W 075°16'0 0.3
2015-Jun-30 11:33N 39°51' W 075°16'0 0.0
2015-Jun-30 10:33N 39°51' W 075°16'0 0.0
2015-Jun-30 09:33N 39°51' W 075°16'0 0.0
2015-Jun-30 08:33N 39°51' W 075°16'0 0.0
2015-Jun-30 07:33N 39°51' W 075°16'0 0.0
2015-Jun-30 06:33N 39°51' W 075°16'0 0.0
2015-Jun-30 05:33N 39°51' W 075°16'3 2.8
2015-Jun-30 04:33N 39°51' W 075°19'7 6.5
2015-Jun-30 03:33N 39°53' W 075°11'0 0.0
2015-Jun-30 02:33N 39°53' W 075°11'0 0.0
2015-Jun-30 01:33N 39°53' W 075°11'0 0.0
2015-Jun-30 00:33N 39°53' W 075°11'0 0.0
2015-Jun-29 23:33N 39°53' W 075°11'0 0.0
2015-Jun-29 22:33N 39°53' W 075°11'0 0.0
2015-Jun-29 21:33N 39°53' W 075°11'0 0.0
2015-Jun-29 20:33N 39°53' W 075°11'0 0.0
2015-Jun-29 19:33N 39°53' W 075°11'0 0.0
2015-Jun-29 18:33N 39°53' W 075°11'2 2.2
2015-Jun-29 17:33N 39°52' W 075°13'9 9.2
2015-Jun-29 16:33N 39°49' W 075°25'0 0.4
2015-Jun-29 15:33N 39°48' W 075°25'1 0.7
2015-Jun-29 14:33N 39°48' W 075°26'0 0.0
2015-Jun-29 13:33N 39°48' W 075°26'0 0.0
2015-Jun-29 12:32N 39°48' W 075°26'0 0.0
2015-Jun-29 11:33N 39°48' W 075°26'2 2.2
2015-Jun-29 10:33N 39°47' W 075°28'5 5.1
2015-Jun-29 09:32N 39°42' W 075°31'5 2.6
2015-Jun-29 07:33N 39°46' W 075°28'1212.6
2015-Jun-29 06:33N 39°52' W 075°13'0 0.3
2015-Jun-29 05:33N 39°52' W 075°13'1 1.2
2015-Jun-29 04:33N 39°51' W 075°14'0 0.3
2015-Jun-29 03:33N 39°51' W 075°15'3 3.4
2015-Jun-29 02:33N 39°53' W 075°11'0 0.0
2015-Jun-29 01:33N 39°53' W 075°11'0 0.0
2015-Jun-29 00:33N 39°53' W 075°11'0 0.0
2015-Jun-28 23:33N 39°53' W 075°11'0 0.0
2015-Jun-28 22:33N 39°53' W 075°11'0 0.0
2015-Jun-28 21:33N 39°53' W 075°11'0 0.0
2015-Jun-28 20:33N 39°53' W 075°11'0 0.0
2015-Jun-28 19:33N 39°53' W 075°11'0 0.0
2015-Jun-28 18:33N 39°53' W 075°11'0 0.0
2015-Jun-28 17:33N 39°53' W 075°11'0 0.0
2015-Jun-28 16:19N 39°53' W 075°11'0 0.0
2015-Jun-28 15:33N 39°53' W 075°11'0 0.0
2015-Jun-28 14:33N 39°53' W 075°11'0 0.0
2015-Jun-28 13:33N 39°53' W 075°11'4 4.1
2015-Jun-28 12:33N 39°57' W 075°08'3 2.9
2015-Jun-28 11:33N 39°59' W 075°05'3 2.9
2015-Jun-28 10:33N 39°57' W 075°08'8 7.6
2015-Jun-28 09:33N 39°51' W 075°15'8 7.6
2015-Jun-28 08:33N 39°49' W 075°24'1 0.7
2015-Jun-28 07:33N 39°49' W 075°23'0 0.0
2015-Jun-28 06:33N 39°49' W 075°23'1 1.2
2015-Jun-28 05:33N 39°49' W 075°25'0 0.0
2015-Jun-28 04:31N 39°49' W 075°25'2 2.3
2015-Jun-28 03:33N 39°50' W 075°22'5 5.3
2015-Jun-28 02:33N 39°51' W 075°16'0 0.0
2015-Jun-28 01:33N 39°51' W 075°16'0 0.0
2015-Jun-28 00:33N 39°51' W 075°16'0 0.0
2015-Jun-27 23:33N 39°51' W 075°16'0 0.0
2015-Jun-27 22:33N 39°51' W 075°16'0 0.0
2015-Jun-27 21:33N 39°51' W 075°16'0 0.0
2015-Jun-27 20:33N 39°51' W 075°16'0 0.0
2015-Jun-27 19:33N 39°51' W 075°16'4 4.3
2015-Jun-27 18:33N 39°53' W 075°11'0 0.0
2015-Jun-27 17:33N 39°53' W 075°11'3 2.9
2015-Jun-27 16:33N 39°55' W 075°08'4 4.4
2015-Jun-27 15:33N 39°59' W 075°05'0 0.1
2015-Jun-27 14:33N 39°59' W 075°05'7 7.1
2015-Jun-27 13:33N 39°53' W 075°11'0 0.0
2015-Jun-27 12:33N 39°53' W 075°11'0 0.0
2015-Jun-27 11:33N 39°53' W 075°11'0 0.0
2015-Jun-27 10:33N 39°53' W 075°11'0 0.0
2015-Jun-27 09:33N 39°53' W 075°11'0 0.0
2015-Jun-27 08:33N 39°53' W 075°11'0 0.0
2015-Jun-27 07:33N 39°53' W 075°11'0 0.0
2015-Jun-27 06:33N 39°53' W 075°11'0 0.2
2015-Jun-27 05:33N 39°53' W 075°11'0 0.2
2015-Jun-27 04:33N 39°53' W 075°11'2 1.8
2015-Jun-27 03:33N 39°52' W 075°13'0 0.1
2015-Jun-27 02:33N 39°52' W 075°13'3 2.6
2015-Jun-27 01:33N 39°51' W 075°16'4 4.2
2015-Jun-27 00:33N 39°53' W 075°11'0 0.3
2015-Jun-26 23:33N 39°53' W 075°11'0 0.0
2015-Jun-26 22:33N 39°53' W 075°11'0 0.0
2015-Jun-26 21:33N 39°53' W 075°11'0 0.0
2015-Jun-26 20:33N 39°53' W 075°11'0 0.0
2015-Jun-26 19:33N 39°53' W 075°11'0 0.0
2015-Jun-26 18:33N 39°53' W 075°11'0 0.2
2015-Jun-26 17:33N 39°53' W 075°11'0 0.4
2015-Jun-26 16:33N 39°53' W 075°11'0 0.2
2015-Jun-26 15:33N 39°53' W 075°11'4 4.1
2015-Jun-26 14:33N 39°57' W 075°08'3 2.7
2015-Jun-26 13:33N 39°59' W 075°06'2 1.6
2015-Jun-26 12:33N 39°58' W 075°08'9 8.5
2015-Jun-26 11:33N 39°51' W 075°15'1 0.8
2015-Jun-26 10:33N 39°51' W 075°16'0 0.0
2015-Jun-26 09:33N 39°51' W 075°16'0 0.0
2015-Jun-26 08:33N 39°51' W 075°16'0 0.0
2015-Jun-26 07:33N 39°51' W 075°16'0 0.0
2015-Jun-26 06:33N 39°51' W 075°16'0 0.0
2015-Jun-26 05:33N 39°51' W 075°16'0 0.0
2015-Jun-26 04:33N 39°51' W 075°16'0 0.3
2015-Jun-26 03:33N 39°51' W 075°16'0 0.3
2015-Jun-26 02:33N 39°51' W 075°16'0 0.3
2015-Jun-26 01:33N 39°51' W 075°16'0 0.4
2015-Jun-26 00:33N 39°51' W 075°16'0 0.0
2015-Jun-25 23:33N 39°51' W 075°16'0 0.0
2015-Jun-25 22:33N 39°51' W 075°16'2 2.3
2015-Jun-25 21:33N 39°52' W 075°13'0 0.1
2015-Jun-25 20:33N 39°52' W 075°13'1 0.5
2015-Jun-25 19:33N 39°52' W 075°14'5 5.5
2015-Jun-25 18:33N 39°51' W 075°21'4 3.8
2015-Jun-25 17:33N 39°49' W 075°25'0 0.0
2015-Jun-25 16:33N 39°49' W 075°25'0 0.0
2015-Jun-25 15:33N 39°49' W 075°25'0 0.0
2015-Jun-25 14:33N 39°49' W 075°25'0 0.0
2015-Jun-25 13:33N 39°49' W 075°25'0 0.4
2015-Jun-25 12:33N 39°49' W 075°24'0 0.4
2015-Jun-25 11:33N 39°49' W 075°25'0 0.0
2015-Jun-25 10:33N 39°49' W 075°25'0 0.1
2015-Jun-25 09:33N 39°49' W 075°25'9 9.3
2015-Jun-25 08:33N 39°52' W 075°14'7 6.7
2015-Jun-25 07:33N 39°57' W 075°08'4 4.3
2015-Jun-25 06:33N 39°60' W 075°04'4 3.6
2015-Jun-25 05:33N 39°58' W 075°08'5 5.4
2015-Jun-25 04:33N 39°53' W 075°11'3 3.3
2015-Jun-25 03:33N 39°51' W 075°15'1 1.2
2015-Jun-25 02:33N 39°51' W 075°16'3 2.8
2015-Jun-25 01:33N 39°51' W 075°20'7 6.6
2015-Jun-25 00:33N 39°53' W 075°12'0 0.4
2015-Jun-24 23:33N 39°53' W 075°11'0 0.0
2015-Jun-24 22:33N 39°53' W 075°11'0 0.0
2015-Jun-24 21:33N 39°53' W 075°11'0 0.0
2015-Jun-24 20:33N 39°53' W 075°11'3 2.5
2015-Jun-24 19:33N 39°54' W 075°08'3 2.5
2015-Jun-24 18:33N 39°53' W 075°11'0 0.0
2015-Jun-24 17:33N 39°53' W 075°11'0 0.0
2015-Jun-24 16:33N 39°53' W 075°11'0 0.0
2015-Jun-24 15:33N 39°53' W 075°11'0 0.0
2015-Jun-24 14:33N 39°53' W 075°11'0 0.0
2015-Jun-24 13:33N 39°53' W 075°11'0 0.0
2015-Jun-24 12:33N 39°53' W 075°11'0 0.0
2015-Jun-24 11:33N 39°53' W 075°11'3 2.5
2015-Jun-24 10:33N 39°54' W 075°08'2 2.0
2015-Jun-24 09:33N 39°53' W 075°10'6 6.5
2015-Jun-24 08:33N 39°58' W 075°06'0 0.5
2015-Jun-24 07:33N 39°59' W 075°05'0 0.0
2015-Jun-24 06:33N 39°59' W 075°05'0 0.0
2015-Jun-24 05:33N 39°59' W 075°05'0 0.0
2015-Jun-24 04:33N 39°59' W 075°05'0 0.0
2015-Jun-24 03:33N 39°59' W 075°05'0 0.0
2015-Jun-24 02:33N 39°59' W 075°05'3 2.5
2015-Jun-24 01:33N 39°57' W 075°08'5 4.6
2015-Jun-24 00:33N 39°53' W 075°11'0 0.0
2015-Jun-23 23:33N 39°53' W 075°11'0 0.0
2015-Jun-23 22:33N 39°53' W 075°11'0 0.0
2015-Jun-23 21:33N 39°53' W 075°11'0 0.0
2015-Jun-23 20:33N 39°53' W 075°11'1 1.1
2015-Jun-23 19:33N 39°54' W 075°12'1 2.7
2015-Jun-23 19:06N 39°52' W 075°12'  
Track history (hours):
 
Tides and Currents Weather Stations Pressure Air Temp Water Temp Dewpoint Dewpoint Depression Visibility Wind Speed Wind Dir Waves Ship Positions

Capt. Harry

Owner: Wilmington Tug, Inc., New Castle, DE. More information available from US FCC via Universal Licensing System and Coast Guard Vessel Documentation Center.

Last reported at 2015-Jul-03 11:33 UTC. Time now 2015-Jul-03 12:26 UTC.
Position N 39°49' W 075°25'.

Type: Tug. MMSI: 367012530.

Date/timePositionNaut miles runAvg speedWind from/ knotsBaromVisibWave heightAir tempDewpointWater temp
2015-Jul-03 11:33N 39°49' W 075°25'0 0.0
2015-Jul-03 10:33N 39°49' W 075°25'0 0.0
2015-Jul-03 09:33N 39°49' W 075°25'0 0.0
2015-Jul-03 08:33N 39°49' W 075°25'1 1.0
2015-Jul-03 07:33N 39°48' W 075°26'0 0.2
2015-Jul-03 06:33N 39°48' W 075°26'0 0.2
2015-Jul-03 05:33N 39°48' W 075°26'7 7.0
2015-Jul-03 04:33N 39°51' W 075°18'5 5.5
2015-Jul-03 03:33N 39°53' W 075°11'0 0.0
2015-Jul-03 02:33N 39°53' W 075°11'0 0.0
2015-Jul-03 01:33N 39°53' W 075°11'4 4.4
2015-Jul-03 00:33N 39°51' W 075°16'0 0.0
2015-Jul-02 23:33N 39°51' W 075°16'2 1.7
2015-Jul-02 22:33N 39°51' W 075°18'5 4.9
2015-Jul-02 21:33N 39°49' W 075°24'8 7.8
2015-Jul-02 20:33N 39°43' W 075°30'9 8.7
2015-Jul-02 19:33N 39°35' W 075°35'0 0.0
2015-Jul-02 18:33N 39°35' W 075°35'2 2.3
2015-Jul-02 17:33N 39°34' W 075°33'2 2.3
2015-Jul-02 16:33N 39°35' W 075°35'0 0.0
2015-Jul-02 15:33N 39°35' W 075°35'0 0.0
2015-Jul-02 14:33N 39°35' W 075°35'0 0.0
2015-Jul-02 13:33N 39°35' W 075°35'0 0.0
2015-Jul-02 12:33N 39°35' W 075°35'0 0.0
2015-Jul-02 11:33N 39°35' W 075°35'0 0.0
2015-Jul-02 10:33N 39°35' W 075°35'0 0.0
2015-Jul-02 09:33N 39°35' W 075°35'0 0.0
2015-Jul-02 08:33N 39°35' W 075°35'0 0.0
2015-Jul-02 07:33N 39°35' W 075°35'0 0.0
2015-Jul-02 06:33N 39°35' W 075°35'0 0.0
2015-Jul-02 05:33N 39°35' W 075°35'0 0.0
2015-Jul-02 04:33N 39°35' W 075°35'0 0.0
2015-Jul-02 03:33N 39°35' W 075°35'0 0.0
2015-Jul-02 02:33N 39°35' W 075°35'0 0.0
2015-Jul-02 01:33N 39°35' W 075°35'0 0.0
2015-Jul-02 00:33N 39°35' W 075°35'0 0.1
2015-Jul-01 23:33N 39°35' W 075°35'0 0.1
2015-Jul-01 22:33N 39°35' W 075°35'0 0.0
2015-Jul-01 21:33N 39°35' W 075°35'0 0.0
2015-Jul-01 20:33N 39°35' W 075°35'0 0.0
2015-Jul-01 19:33N 39°35' W 075°35'0 0.0
2015-Jul-01 18:33N 39°35' W 075°35'0 0.0
2015-Jul-01 17:33N 39°35' W 075°35'0 0.0
2015-Jul-01 16:33N 39°35' W 075°35'0 0.2
2015-Jul-01 15:33N 39°35' W 075°35'0 0.3
2015-Jul-01 14:33N 39°35' W 075°36'0 0.0
2015-Jul-01 13:33N 39°35' W 075°36'0 0.0
2015-Jul-01 12:33N 39°35' W 075°36'0 0.0
2015-Jul-01 11:33N 39°35' W 075°35'0 0.0
2015-Jul-01 10:33N 39°35' W 075°35'0 0.0
2015-Jul-01 09:33N 39°35' W 075°35'0 0.0
2015-Jul-01 08:33N 39°35' W 075°35'0 0.0
2015-Jul-01 07:33N 39°35' W 075°35'0 0.1
2015-Jul-01 06:33N 39°35' W 075°36'2 2.0
2015-Jul-01 05:33N 39°34' W 075°33'8 7.9
2015-Jul-01 04:33N 39°42' W 075°31'1 0.9
2015-Jul-01 03:33N 39°43' W 075°31'0 0.0
2015-Jul-01 02:33N 39°43' W 075°31'0 0.0
2015-Jul-01 01:33N 39°43' W 075°31'0 0.0
2015-Jul-01 00:33N 39°43' W 075°31'0 0.0
2015-Jun-30 23:33N 39°43' W 075°31'0 0.0
2015-Jun-30 22:33N 39°43' W 075°31'0 0.0
2015-Jun-30 21:33N 39°43' W 075°31'0 0.0
2015-Jun-30 20:33N 39°43' W 075°31'0 0.0
2015-Jun-30 19:33N 39°43' W 075°31'1 0.5
2015-Jun-30 18:33N 39°43' W 075°31'1 0.5
2015-Jun-30 17:33N 39°43' W 075°31'10 3.2
2015-Jun-30 14:27N 39°50' W 075°22'4 4.9
2015-Jun-30 13:33N 39°51' W 075°16'0 0.0
2015-Jun-30 12:33N 39°51' W 075°16'0 0.3
2015-Jun-30 11:33N 39°51' W 075°16'0 0.0
2015-Jun-30 10:33N 39°51' W 075°16'0 0.0
2015-Jun-30 09:33N 39°51' W 075°16'0 0.0
2015-Jun-30 08:33N 39°51' W 075°16'0 0.0
2015-Jun-30 07:33N 39°51' W 075°16'0 0.0
2015-Jun-30 06:33N 39°51' W 075°16'0 0.0
2015-Jun-30 05:33N 39°51' W 075°16'3 2.8
2015-Jun-30 04:33N 39°51' W 075°19'7 6.5
2015-Jun-30 03:33N 39°53' W 075°11'0 0.0
2015-Jun-30 02:33N 39°53' W 075°11'0 0.0
2015-Jun-30 01:33N 39°53' W 075°11'0 0.0
2015-Jun-30 00:33N 39°53' W 075°11'0 0.0
2015-Jun-29 23:33N 39°53' W 075°11'0 0.0
2015-Jun-29 22:33N 39°53' W 075°11'0 0.0
2015-Jun-29 21:33N 39°53' W 075°11'0 0.0
2015-Jun-29 20:33N 39°53' W 075°11'0 0.0
2015-Jun-29 19:33N 39°53' W 075°11'0 0.0
2015-Jun-29 18:33N 39°53' W 075°11'2 2.2
2015-Jun-29 17:33N 39°52' W 075°13'9 9.2
2015-Jun-29 16:33N 39°49' W 075°25'0 0.4
2015-Jun-29 15:33N 39°48' W 075°25'1 0.7
2015-Jun-29 14:33N 39°48' W 075°26'0 0.0
2015-Jun-29 13:33N 39°48' W 075°26'0 0.0
2015-Jun-29 12:32N 39°48' W 075°26'0 0.0
2015-Jun-29 11:33N 39°48' W 075°26'2 2.2
2015-Jun-29 10:33N 39°47' W 075°28'5 5.1
2015-Jun-29 09:32N 39°42' W 075°31'5 2.6
2015-Jun-29 07:33N 39°46' W 075°28'1212.6
2015-Jun-29 06:33N 39°52' W 075°13'0 0.3
2015-Jun-29 05:33N 39°52' W 075°13'1 1.2
2015-Jun-29 04:33N 39°51' W 075°14'0 0.3
2015-Jun-29 03:33N 39°51' W 075°15'3 3.4
2015-Jun-29 02:33N 39°53' W 075°11'0 0.0
2015-Jun-29 01:33N 39°53' W 075°11'0 0.0
2015-Jun-29 00:33N 39°53' W 075°11'0 0.0
2015-Jun-28 23:33N 39°53' W 075°11'0 0.0
2015-Jun-28 22:33N 39°53' W 075°11'0 0.0
2015-Jun-28 21:33N 39°53' W 075°11'0 0.0
2015-Jun-28 20:33N 39°53' W 075°11'0 0.0
2015-Jun-28 19:33N 39°53' W 075°11'0 0.0
2015-Jun-28 18:33N 39°53' W 075°11'0 0.0
2015-Jun-28 17:33N 39°53' W 075°11'0 0.0
2015-Jun-28 16:19N 39°53' W 075°11'0 0.0
2015-Jun-28 15:33N 39°53' W 075°11'0 0.0
2015-Jun-28 14:33N 39°53' W 075°11'0 0.0
2015-Jun-28 13:33N 39°53' W 075°11'4 4.1
2015-Jun-28 12:33N 39°57' W 075°08'3 2.9
2015-Jun-28 11:33N 39°59' W 075°05'3 2.9
2015-Jun-28 10:33N 39°57' W 075°08'8 7.6
2015-Jun-28 09:33N 39°51' W 075°15'8 7.6
2015-Jun-28 08:33N 39°49' W 075°24'1 0.7
2015-Jun-28 07:33N 39°49' W 075°23'0 0.0
2015-Jun-28 06:33N 39°49' W 075°23'1 1.2
2015-Jun-28 05:33N 39°49' W 075°25'0 0.0
2015-Jun-28 04:31N 39°49' W 075°25'2 2.3
2015-Jun-28 03:33N 39°50' W 075°22'5 5.3
2015-Jun-28 02:33N 39°51' W 075°16'0 0.0
2015-Jun-28 01:33N 39°51' W 075°16'0 0.0
2015-Jun-28 00:33N 39°51' W 075°16'0 0.0
2015-Jun-27 23:33N 39°51' W 075°16'0 0.0
2015-Jun-27 22:33N 39°51' W 075°16'0 0.0
2015-Jun-27 21:33N 39°51' W 075°16'0 0.0
2015-Jun-27 20:33N 39°51' W 075°16'0 0.0
2015-Jun-27 19:33N 39°51' W 075°16'4 4.3
2015-Jun-27 18:33N 39°53' W 075°11'0 0.0
2015-Jun-27 17:33N 39°53' W 075°11'3 2.9
2015-Jun-27 16:33N 39°55' W 075°08'4 4.4
2015-Jun-27 15:33N 39°59' W 075°05'0 0.1
2015-Jun-27 14:33N 39°59' W 075°05'7 7.1
2015-Jun-27 13:33N 39°53' W 075°11'0 0.0
2015-Jun-27 12:33N 39°53' W 075°11'0 0.0
2015-Jun-27 11:33N 39°53' W 075°11'0 0.0
2015-Jun-27 10:33N 39°53' W 075°11'0 0.0
2015-Jun-27 09:33N 39°53' W 075°11'0 0.0
2015-Jun-27 08:33N 39°53' W 075°11'0 0.0
2015-Jun-27 07:33N 39°53' W 075°11'0 0.0
2015-Jun-27 06:33N 39°53' W 075°11'0 0.2
2015-Jun-27 05:33N 39°53' W 075°11'0 0.2
2015-Jun-27 04:33N 39°53' W 075°11'2 1.8
2015-Jun-27 03:33N 39°52' W 075°13'0 0.1
2015-Jun-27 02:33N 39°52' W 075°13'3 2.6
2015-Jun-27 01:33N 39°51' W 075°16'4 4.2
2015-Jun-27 00:33N 39°53' W 075°11'0 0.3
2015-Jun-26 23:33N 39°53' W 075°11'0 0.0
2015-Jun-26 22:33N 39°53' W 075°11'0 0.0
2015-Jun-26 21:33N 39°53' W 075°11'0 0.0
2015-Jun-26 20:33N 39°53' W 075°11'0 0.0
2015-Jun-26 19:33N 39°53' W 075°11'0 0.0
2015-Jun-26 18:33N 39°53' W 075°11'0 0.2
2015-Jun-26 17:33N 39°53' W 075°11'0 0.4
2015-Jun-26 16:33N 39°53' W 075°11'0 0.2
2015-Jun-26 15:33N 39°53' W 075°11'4 4.1
2015-Jun-26 14:33N 39°57' W 075°08'3 2.7
2015-Jun-26 13:33N 39°59' W 075°06'2 1.6
2015-Jun-26 12:33N 39°58' W 075°08'9 8.5
2015-Jun-26 11:33N 39°51' W 075°15'1 0.8
2015-Jun-26 10:33N 39°51' W 075°16'0 0.0
2015-Jun-26 09:33N 39°51' W 075°16'0 0.0
2015-Jun-26 08:33N 39°51' W 075°16'0 0.0
2015-Jun-26 07:33N 39°51' W 075°16'0 0.0
2015-Jun-26 06:33N 39°51' W 075°16'0 0.0
2015-Jun-26 05:33N 39°51' W 075°16'0 0.0
2015-Jun-26 04:33N 39°51' W 075°16'0 0.3
2015-Jun-26 03:33N 39°51' W 075°16'0 0.3
2015-Jun-26 02:33N 39°51' W 075°16'0 0.3
2015-Jun-26 01:33N 39°51' W 075°16'0 0.4
2015-Jun-26 00:33N 39°51' W 075°16'0 0.0
2015-Jun-25 23:33N 39°51' W 075°16'0 0.0
2015-Jun-25 22:33N 39°51' W 075°16'2 2.3
2015-Jun-25 21:33N 39°52' W 075°13'0 0.1
2015-Jun-25 20:33N 39°52' W 075°13'1 0.5
2015-Jun-25 19:33N 39°52' W 075°14'5 5.5
2015-Jun-25 18:33N 39°51' W 075°21'4 3.8
2015-Jun-25 17:33N 39°49' W 075°25'0 0.0
2015-Jun-25 16:33N 39°49' W 075°25'0 0.0
2015-Jun-25 15:33N 39°49' W 075°25'0 0.0
2015-Jun-25 14:33N 39°49' W 075°25'0 0.0
2015-Jun-25 13:33N 39°49' W 075°25'0 0.4
2015-Jun-25 12:33N 39°49' W 075°24'0 0.4
2015-Jun-25 11:33N 39°49' W 075°25'0 0.0
2015-Jun-25 10:33N 39°49' W 075°25'0 0.1
2015-Jun-25 09:33N 39°49' W 075°25'9 9.3
2015-Jun-25 08:33N 39°52' W 075°14'7 6.7
2015-Jun-25 07:33N 39°57' W 075°08'4 4.3
2015-Jun-25 06:33N 39°60' W 075°04'4 3.6
2015-Jun-25 05:33N 39°58' W 075°08'5 5.4
2015-Jun-25 04:33N 39°53' W 075°11'3 3.3
2015-Jun-25 03:33N 39°51' W 075°15'1 1.2
2015-Jun-25 02:33N 39°51' W 075°16'3 2.8
2015-Jun-25 01:33N 39°51' W 075°20'7 6.6
2015-Jun-25 00:33N 39°53' W 075°12'0 0.4
2015-Jun-24 23:33N 39°53' W 075°11'0 0.0
2015-Jun-24 22:33N 39°53' W 075°11'0 0.0
2015-Jun-24 21:33N 39°53' W 075°11'0 0.0
2015-Jun-24 20:33N 39°53' W 075°11'3 2.5
2015-Jun-24 19:33N 39°54' W 075°08'3 2.5
2015-Jun-24 18:33N 39°53' W 075°11'0 0.0
2015-Jun-24 17:33N 39°53' W 075°11'0 0.0
2015-Jun-24 16:33N 39°53' W 075°11'0 0.0
2015-Jun-24 15:33N 39°53' W 075°11'0 0.0
2015-Jun-24 14:33N 39°53' W 075°11'0 0.0
2015-Jun-24 13:33N 39°53' W 075°11'0 0.0
2015-Jun-24 12:33N 39°53' W 075°11'0 0.0
2015-Jun-24 11:33N 39°53' W 075°11'3 2.5
2015-Jun-24 10:33N 39°54' W 075°08'2 2.0
2015-Jun-24 09:33N 39°53' W 075°10'6 6.5
2015-Jun-24 08:33N 39°58' W 075°06'0 0.5
2015-Jun-24 07:33N 39°59' W 075°05'0 0.0
2015-Jun-24 06:33N 39°59' W 075°05'0 0.0
2015-Jun-24 05:33N 39°59' W 075°05'0 0.0
2015-Jun-24 04:33N 39°59' W 075°05'0 0.0
2015-Jun-24 03:33N 39°59' W 075°05'0 0.0
2015-Jun-24 02:33N 39°59' W 075°05'3 2.5
2015-Jun-24 01:33N 39°57' W 075°08'5 4.6
2015-Jun-24 00:33N 39°53' W 075°11'0 0.0
2015-Jun-23 23:33N 39°53' W 075°11'0 0.0
2015-Jun-23 22:33N 39°53' W 075°11'0 0.0
2015-Jun-23 21:33N 39°53' W 075°11'0 0.0
2015-Jun-23 20:33N 39°53' W 075°11'1 1.1
2015-Jun-23 19:33N 39°54' W 075°12'1 2.7
2015-Jun-23 19:06N 39°52' W 075°12'  

Dump ship's entire track history